D/T METAR WX W/DIR W/SPE G/SPE TEMP DEWP
16/07/19 16:50 EGUW 161550Z 11007KT CAVOK 24/12 Q1017 NOSIG RMK BLU BLU ESE (110°) 8.1mph 24°C 12°C
16/07/19 16:19 EGUW 161519Z 36007KT CAVOK 24/10 Q1017 NOSIG RMK BLU BLU N (360°) 8.1mph 24°C 10°C
16/07/19 15:20 EGUW 161420Z 30003KT CAVOK 25/12 Q1017 NOSIG RMK BLU BLU WNW (300°) 3.5mph 25°C 12°C
16/07/19 14:50 EGUW 161350Z 01003KT CAVOK 24/12 Q1018 NOSIG RMK BLU BLU N (10°) 3.5mph 24°C 12°C
16/07/19 14:21 EGUW 161321Z 01003KT CAVOK 25/12 Q1018 NOSIG RMK BLU BLU N (10°) 3.5mph 25°C 12°C
16/07/19 13:50 EGUW 161250Z 35005KT 9999 FEW048 24/11 Q1018 NOSIG RMK BLU BLU N (350°) 5.8mph 24°C 11°C
16/07/19 13:20 EGUW 161220Z 33006KT 9999 FEW045 24/13 Q1018 NOSIG RMK BLU BLU NNW (330°) 6.9mph 24°C 13°C
16/07/19 12:50 EGUW 161150Z 33005KT 9999 FEW044 23/12 Q1018 NOSIG RMK BLU BLU NNW (330°) 5.8mph 23°C 12°C
16/07/19 12:20 EGUW 161120Z 36004KT 9999 FEW042 23/13 Q1018 NOSIG RMK BLU BLU N (360°) 4.6mph 23°C 13°C
16/07/19 11:50 EGUW 161050Z 31007KT 9999 FEW040 22/12 Q1019 NOSIG RMK BLU BLU NW (310°) 8.1mph 22°C 12°C
16/07/19 11:20 EGUW 161020Z 02006KT 9999 FEW038 22/13 Q1019 NOSIG RMK BLU BLU NNE (20°) 6.9mph 22°C 13°C
16/07/19 10:50 EGUW 160950Z 34007KT 9999 FEW035 21/12 Q1019 NOSIG RMK BLU BLU NNW (340°) 8.1mph 21°C 12°C
16/07/19 10:20 EGUW 160920Z 31005KT 9999 FEW030 21/13 Q1019 NOSIG RMK BLU BLU NW (310°) 5.8mph 21°C 13°C
16/07/19 09:50 EGUW 160850Z 30004KT CAVOK 20/12 Q1019 NOSIG RMK BLU BLU WNW (300°) 4.6mph 20°C 12°C
16/07/19 09:20 EGUW 160820Z 29007KT CAVOK 19/13 Q1019 NOSIG RMK BLU BLU WNW (290°) 8.1mph 19°C 13°C
16/07/19 08:50 EGUW 160750Z 30007KT CAVOK 19/13 Q1020 NOSIG RMK BLU BLU WNW (300°) 8.1mph 19°C 13°C
16/07/19 08:21 EGUW 160721Z 29004KT CAVOK 17/13 Q1020 NOSIG RMK BLU BLU WNW (290°) 4.6mph 17°C 13°C
16/07/19 07:50 EGUW 160650Z 26005KT CAVOK 15/13 Q1020 NOSIG RMK BLU BLU W (260°) 5.8mph 15°C 13°C
16/07/19 06:50 EGUW 160550Z 25005KT CAVOK 12/11 Q1019 BLU WSW (250°) 5.8mph 12°C 11°C
16/07/19 05:50 EGUW 160450Z AUTO 25005KT 6000 BR NCD 09/09 Q1019 BR WSW (250°) 5.8mph 9°C 9°C
16/07/19 04:50 EGUW 160350Z AUTO 25005KT 5000 BR NCD 09/09 Q1019 BR WSW (250°) 5.8mph 9°C 9°C
16/07/19 03:50 EGUW 160250Z AUTO 25005KT 3100 BR NCD 09/09 Q1020 BR WSW (250°) 5.8mph 9°C 9°C
16/07/19 02:50 EGUW 160150Z AUTO 24004KT 4300 BR NCD 10/09 Q1020 BR WSW (240°) 4.6mph 10°C 9°C
16/07/19 01:50 EGUW 160050Z AUTO 24004KT 9000 BR NCD 10/10 Q1020 BR WSW (240°) 4.6mph 10°C 10°C
16/07/19 00:50 EGUW 152350Z 23004KT CAVOK 11/10 Q1021 NOSIG RMK BLU BLU SW (230°) 4.6mph 11°C 10°C
16/07/19 00:20 EGUW 152320Z 23004KT CAVOK 11/10 Q1021 NOSIG RMK BLU BLU SW (230°) 4.6mph 11°C 10°C
15/07/19 23:50 EGUW 152250Z 21004KT CAVOK 12/10 Q1021 NOSIG RMK BLU BLU SSW (210°) 4.6mph 12°C 10°C
15/07/19 23:20 EGUW 152220Z 20004KT CAVOK 12/11 Q1021 NOSIG RMK BLU BLU SSW (200°) 4.6mph 12°C 11°C
15/07/19 22:50 EGUW 152150Z 18004KT CAVOK 13/11 Q1021 NOSIG RMK BLU BLU S (180°) 4.6mph 13°C 11°C
15/07/19 22:20 EGUW 152120Z 18006KT CAVOK 13/12 Q1021 NOSIG RMK BLU BLU S (180°) 6.9mph 13°C 12°C
15/07/19 21:50 EGUW 152050Z 16006KT CAVOK 13/11 Q1021 NOSIG RMK BLU BLU SSE (160°) 6.9mph 13°C 11°C
15/07/19 21:20 EGUW 152020Z 18003KT CAVOK 15/10 Q1021 NOSIG RMK BLU BLU S (180°) 3.5mph 15°C 10°C
15/07/19 20:20 EGUW 151920Z 00000KT 9999 FEW035 18/10 Q1021 NOSIG RMK BLU BLU N (0°) 18°C 10°C
15/07/19 19:50 EGUW 151850Z 36001KT 9999 FEW035 18/10 Q1021 NOSIG RMK BLU BLU N (360°) 1.2mph 18°C 10°C
15/07/19 19:19 EGUW 151819Z 04002KT 9999 FEW035 18/10 Q1021 NOSIG RMK BLU BLU NE (40°) 2.3mph 18°C 10°C
15/07/19 18:50 EGUW 151750Z 36003KT 9999 BKN034 17/10 Q1021 NOSIG RMK BLU BLU N (360°) 3.5mph 17°C 10°C
15/07/19 18:20 EGUW 151720Z 03006KT 9999 BKN032 17/11 Q1021 NOSIG RMK BLU BLU NNE (30°) 6.9mph 17°C 11°C
15/07/19 17:50 EGUW 151650Z 03005KT 9999 BKN032 17/10 Q1021 NOSIG RMK BLU BLU NNE (30°) 5.8mph 17°C 10°C
15/07/19 17:20 EGUW 151620Z 01006KT 9999 BKN032 17/10 Q1022 NOSIG RMK BLU BLU N (10°) 6.9mph 17°C 10°C
15/07/19 16:50 EGUW 151550Z 02003KT 9999 BKN030 17/11 Q1022 NOSIG RMK BLU BLU NNE (20°) 3.5mph 17°C 11°C
15/07/19 16:19 EGUW 151519Z 36005KT 9999 BKN029 17/10 Q1022 NOSIG RMK BLU BLU N (360°) 5.8mph 17°C 10°C
15/07/19 15:50 EGUW 151450Z 02006KT 9999 BKN028 17/11 Q1022 NOIG RMK BLU BLU NNE (20°) 6.9mph 17°C 11°C
15/07/19 15:19 EGUW 151419Z 03005KT 9999 BKN028 17/10 Q1022 NOSIG RMK BLU BLU NNE (30°) 5.8mph 17°C 10°C
15/07/19 14:50 EGUW 151350Z 01006KT 9999 BKN026 17/10 Q1022 NOSIG RMK BLU BLU N (10°) 6.9mph 17°C 10°C
15/07/19 14:20 EGUW 151320Z 01007KT 9999 BKN026 17/10 Q1022 NOSIG RMK BLU BLU N (10°) 8.1mph 17°C 10°C
15/07/19 13:50 EGUW 151250Z 02006KT 9999 BKN025 17/10 Q1022 NOSIG RMK BLU BLU NNE (20°) 6.9mph 17°C 10°C
15/07/19 13:20 EGUW 151220Z 02008KT 9999 BKN025 16/10 Q1022 NOSIG RMK BLU BLU NNE (20°) 9.2mph 16°C 10°C
15/07/19 12:50 EGUW 151150Z 01006KT 9999 BKN025 16/11 Q1022 NOSIG RMK BLU BLU N (10°) 6.9mph 16°C 11°C